createdAt,value
2022-12-16T00:00:35.123Z,86.80
2022-12-16T00:03:08.839Z,86.90
2022-12-16T00:05:43.000Z,87.40
2022-12-16T00:08:11.726Z,86.90
2022-12-16T00:10:54.937Z,86.70
2022-12-16T00:13:27.312Z,86.60
2022-12-16T00:15:58.018Z,86.50
2022-12-16T00:18:29.178Z,86.30
2022-12-16T00:20:59.991Z,86.20
2022-12-16T00:23:38.984Z,86.00
2022-12-16T00:26:10.353Z,85.90
2022-12-16T00:28:42.206Z,85.50
2022-12-16T00:31:13.149Z,85.70
2022-12-16T00:33:43.989Z,85.60
2022-12-16T00:36:14.794Z,85.60
2022-12-16T00:38:45.464Z,86.00
2022-12-16T00:41:16.150Z,86.10
2022-12-16T00:43:47.755Z,85.80
2022-12-16T00:46:22.143Z,85.20
2022-12-16T00:48:53.012Z,84.80
2022-12-16T00:51:27.969Z,84.40
2022-12-16T00:53:59.067Z,84.00
2022-12-16T00:56:29.729Z,84.10
2022-12-16T00:59:00.393Z,84.30
2022-12-16T01:01:31.396Z,83.40
2022-12-16T01:04:02.158Z,83.40
2022-12-16T01:06:33.796Z,83.30
2022-12-16T01:09:04.463Z,83.20
2022-12-16T01:11:35.232Z,82.70
2022-12-16T01:14:06.120Z,82.70
2022-12-16T01:16:36.782Z,82.30
2022-12-16T01:19:07.529Z,82.10
2022-12-16T01:21:38.349Z,82.80
2022-12-16T01:24:09.447Z,81.60
2022-12-16T01:26:40.616Z,81.50
2022-12-16T01:29:11.400Z,81.20
2022-12-16T01:31:42.113Z,81.00
2022-12-16T01:34:12.926Z,81.00
2022-12-16T01:36:43.596Z,81.60
2022-12-16T01:39:14.675Z,80.50
2022-12-16T01:41:45.348Z,80.20
2022-12-16T01:44:21.350Z,80.20
2022-12-16T01:47:00.869Z,80.30
2022-12-16T01:49:49.024Z,80.00
2022-12-16T01:52:22.353Z,79.80
2022-12-16T01:54:55.652Z,79.70
2022-12-16T01:57:28.905Z,79.60
2022-12-16T02:00:00.177Z,79.20
2022-12-16T02:02:31.057Z,79.30
2022-12-16T02:05:19.598Z,79.30
2022-12-16T02:07:58.654Z,79.20
2022-12-16T02:10:43.834Z,79.10
2022-12-16T02:13:36.691Z,79.00
2022-12-16T02:16:21.970Z,79.00
2022-12-16T02:19:19.487Z,79.00
2022-12-16T02:22:10.930Z,78.90
2022-12-16T02:24:56.044Z,78.90
2022-12-16T02:27:44.999Z,78.80
2022-12-16T02:30:34.945Z,78.70
2022-12-16T02:33:20.598Z,78.40
2022-12-16T02:36:15.076Z,78.50
2022-12-16T02:39:00.672Z,78.40
2022-12-16T02:41:36.893Z,78.30
2022-12-16T02:44:12.918Z,79.00
2022-12-16T02:46:46.253Z,78.20
2022-12-16T02:49:19.502Z,77.90
2022-12-16T02:51:51.256Z,77.70
2022-12-16T02:54:23.504Z,77.60
2022-12-16T02:57:19.405Z,77.20
2022-12-16T02:59:55.686Z,76.70
2022-12-16T03:02:31.054Z,76.20
2022-12-16T03:05:11.836Z,76.50
2022-12-16T03:07:44.824Z,76.00
2022-12-16T03:10:19.121Z,75.90
2022-12-16T03:12:50.345Z,75.50
2022-12-16T03:15:23.969Z,74.90
2022-12-16T03:17:57.599Z,74.90
2022-12-16T03:20:40.427Z,74.40
2022-12-16T03:23:13.671Z,74.30
2022-12-16T03:25:46.305Z,73.90
2022-12-16T03:28:37.702Z,74.30
2022-12-16T03:31:28.872Z,74.10
2022-12-16T03:34:08.354Z,73.90
2022-12-16T03:36:41.835Z,73.40
2022-12-16T03:39:14.396Z,72.80
2022-12-16T03:41:47.830Z,72.40
2022-12-16T03:44:19.791Z,72.10
2022-12-16T03:46:51.435Z,71.80
2022-12-16T03:49:23.824Z,71.70
2022-12-16T03:51:56.421Z,71.40
2022-12-16T03:54:27.175Z,70.70
2022-12-16T03:56:58.145Z,70.10
2022-12-16T03:59:28.993Z,69.60
2022-12-16T04:02:01.181Z,69.80
2022-12-16T04:04:32.019Z,69.70
2022-12-16T04:07:20.738Z,69.70
2022-12-16T04:09:52.537Z,69.20
2022-12-16T04:12:40.591Z,68.40
2022-12-16T04:15:22.420Z,68.20
2022-12-16T04:18:11.176Z,68.90
2022-12-16T04:21:01.635Z,68.00
2022-12-16T04:23:53.644Z,67.70
2022-12-16T04:26:25.186Z,67.60
2022-12-16T04:28:56.369Z,66.80
2022-12-16T04:31:27.670Z,66.70
2022-12-16T04:34:16.457Z,66.50
2022-12-16T04:37:05.587Z,66.80
2022-12-16T04:39:54.472Z,66.50
2022-12-16T04:42:43.913Z,67.00
2022-12-16T04:45:34.624Z,66.40
2022-12-16T04:48:23.567Z,65.50
2022-12-16T04:51:12.231Z,65.40
2022-12-16T04:54:01.489Z,65.30
2022-12-16T04:57:08.884Z,65.40
2022-12-16T04:59:58.970Z,64.60
2022-12-16T05:02:47.798Z,64.00
2022-12-16T05:05:36.525Z,63.90
2022-12-16T05:08:25.289Z,63.60
2022-12-16T05:11:13.807Z,63.30
2022-12-16T05:14:02.743Z,63.00
2022-12-16T05:16:51.825Z,63.30
2022-12-16T05:19:43.957Z,63.00
2022-12-16T05:22:32.917Z,62.70
2022-12-16T05:25:21.057Z,63.30
2022-12-16T05:28:13.643Z,62.70
2022-12-16T05:31:02.083Z,62.50
2022-12-16T05:33:50.710Z,62.20
2022-12-16T05:36:39.201Z,62.30
2022-12-16T05:39:28.076Z,62.30
2022-12-16T05:42:18.164Z,61.50
2022-12-16T05:45:06.304Z,61.40
2022-12-16T05:47:54.898Z,60.50
2022-12-16T05:50:43.038Z,60.00
2022-12-16T05:53:31.726Z,60.20
2022-12-16T05:56:20.643Z,59.90
2022-12-16T05:59:09.312Z,59.80
2022-12-16T06:01:57.874Z,59.70
2022-12-16T06:04:46.537Z,59.80
2022-12-16T06:07:35.277Z,59.80
2022-12-16T06:10:27.744Z,59.50
2022-12-16T06:13:16.459Z,60.20
2022-12-16T06:16:08.988Z,59.50
2022-12-16T06:18:55.830Z,59.60
2022-12-16T06:21:44.896Z,59.70
2022-12-16T06:24:34.163Z,59.20
2022-12-16T06:27:22.510Z,59.30
2022-12-16T06:30:11.266Z,59.30
2022-12-16T06:32:59.277Z,59.10
2022-12-16T06:35:47.420Z,58.90
2022-12-16T06:38:38.452Z,58.80
2022-12-16T06:41:27.630Z,59.50
2022-12-16T06:44:16.168Z,59.00
2022-12-16T06:47:03.945Z,58.50
2022-12-16T06:49:52.522Z,58.30
2022-12-16T06:52:40.913Z,58.40
2022-12-16T06:55:29.798Z,58.30
2022-12-16T06:58:19.230Z,58.70
2022-12-16T07:01:08.222Z,65.80
2022-12-16T07:03:57.776Z,58.10
2022-12-16T07:06:46.264Z,58.60
2022-12-16T07:09:35.196Z,59.10
2022-12-16T07:12:24.562Z,58.40
2022-12-16T07:15:13.875Z,58.50
2022-12-16T07:18:06.119Z,58.40
2022-12-16T07:20:55.007Z,58.40
2022-12-16T07:23:43.736Z,58.60
2022-12-16T07:26:33.777Z,58.20
2022-12-16T07:29:22.108Z,62.00
2022-12-16T07:32:11.618Z,62.80
2022-12-16T07:34:59.599Z,70.20
2022-12-16T07:37:48.233Z,66.70
2022-12-16T07:40:38.171Z,68.40
2022-12-16T07:43:28.259Z,70.70
2022-12-16T07:46:15.346Z,73.70
2022-12-16T07:49:05.594Z,58.00
2022-12-16T07:51:59.348Z,58.50
2022-12-16T07:54:48.102Z,58.60
2022-12-16T07:57:26.316Z,58.50
2022-12-16T08:00:17.213Z,58.80
2022-12-16T08:03:05.847Z,58.70
2022-12-16T08:05:54.423Z,58.80
2022-12-16T08:08:44.100Z,58.80
2022-12-16T08:11:33.320Z,59.00
2022-12-16T08:14:21.894Z,58.90
2022-12-16T08:17:10.126Z,58.90
2022-12-16T08:19:59.131Z,59.00
2022-12-16T08:22:47.886Z,59.20
2022-12-16T08:25:19.979Z,59.30
2022-12-16T08:28:10.481Z,59.10
2022-12-16T08:30:44.899Z,59.10
2022-12-16T08:33:33.300Z,59.10
2022-12-16T08:36:22.893Z,59.20
2022-12-16T08:39:13.188Z,59.20
2022-12-16T08:42:02.254Z,59.40
2022-12-16T08:44:50.509Z,59.50
2022-12-16T08:47:39.072Z,59.40
2022-12-16T08:50:28.114Z,59.50
2022-12-16T08:53:17.381Z,59.30
2022-12-16T08:56:06.450Z,59.30
2022-12-16T08:58:54.999Z,59.50
2022-12-16T09:01:44.422Z,59.50
2022-12-16T09:04:36.102Z,59.40
2022-12-16T09:07:25.053Z,59.50
2022-12-16T09:10:14.124Z,59.70
2022-12-16T09:13:03.084Z,60.60
2022-12-16T09:15:51.893Z,59.70
2022-12-16T09:18:43.831Z,59.90
2022-12-16T09:21:33.457Z,59.90
2022-12-16T09:24:21.798Z,60.30
2022-12-16T09:27:10.550Z,60.40
2022-12-16T09:29:59.801Z,60.60
2022-12-16T09:32:48.563Z,60.40
2022-12-16T09:35:37.948Z,60.60
2022-12-16T09:38:26.908Z,60.40
2022-12-16T09:41:15.354Z,60.70
2022-12-16T09:44:27.461Z,61.00
2022-12-16T09:47:33.205Z,61.00
2022-12-16T09:50:21.974Z,60.90
2022-12-16T09:53:22.407Z,61.30
2022-12-16T09:56:12.380Z,61.60
2022-12-16T09:59:03.616Z,61.80
2022-12-16T10:01:54.746Z,61.80
2022-12-16T10:04:45.801Z,62.00
2022-12-16T10:07:39.912Z,62.00
2022-12-16T10:10:48.941Z,62.30
2022-12-16T10:13:48.465Z,62.40
2022-12-16T10:16:58.752Z,62.50
2022-12-16T10:20:10.260Z,62.70
2022-12-16T10:23:17.587Z,63.10
2022-12-16T10:26:20.369Z,63.10
2022-12-16T10:29:10.769Z,63.20
2022-12-16T10:32:01.871Z,63.40
2022-12-16T10:35:00.455Z,64.50
2022-12-16T10:38:00.188Z,64.00
2022-12-16T10:40:50.826Z,64.00
2022-12-16T10:43:47.680Z,64.30
2022-12-16T10:46:40.356Z,64.60
2022-12-16T10:49:32.018Z,64.80
2022-12-16T10:52:21.178Z,65.10
2022-12-16T10:55:23.225Z,65.40
2022-12-16T10:58:22.871Z,65.60
2022-12-16T11:01:13.043Z,65.30
2022-12-16T11:04:01.965Z,66.00
2022-12-16T11:07:01.369Z,66.30
2022-12-16T11:09:52.079Z,66.50
2022-12-16T11:12:49.884Z,66.60
2022-12-16T11:15:49.955Z,66.80
2022-12-16T11:18:41.927Z,67.20
2022-12-16T11:21:39.364Z,67.80
2022-12-16T11:24:36.141Z,67.80
2022-12-16T11:27:39.134Z,67.90
2022-12-16T11:30:39.343Z,68.00
2022-12-16T11:33:36.029Z,68.10
2022-12-16T11:36:30.278Z,67.90
2022-12-16T11:39:19.318Z,68.10
2022-12-16T11:42:10.569Z,68.40
2022-12-16T11:45:03.672Z,68.50
2022-12-16T11:48:10.755Z,68.70
2022-12-16T11:51:02.237Z,68.80
2022-12-16T11:53:56.150Z,68.80
2022-12-16T11:56:47.891Z,69.00
2022-12-16T11:59:44.264Z,69.10
2022-12-16T12:02:32.612Z,69.00
2022-12-16T12:05:21.333Z,69.80
2022-12-16T12:08:10.533Z,69.00
2022-12-16T12:11:15.845Z,68.90
2022-12-16T12:14:09.322Z,68.90
2022-12-16T12:17:11.621Z,68.60
2022-12-16T12:20:21.074Z,68.60
2022-12-16T12:23:10.146Z,68.60
2022-12-16T12:26:25.412Z,69.70
2022-12-16T12:29:45.986Z,68.80
2022-12-16T12:32:58.118Z,68.90
2022-12-16T12:36:16.065Z,68.90
2022-12-16T12:39:22.321Z,69.00
2022-12-16T12:42:31.185Z,69.10
2022-12-16T12:45:36.831Z,69.30
2022-12-16T12:48:28.468Z,69.50
2022-12-16T12:51:41.973Z,69.70
2022-12-16T12:54:52.591Z,70.00
2022-12-16T12:57:43.136Z,70.20
2022-12-16T13:00:36.990Z,70.30
2022-12-16T13:03:35.098Z,70.90
2022-12-16T13:06:25.322Z,70.70
2022-12-16T13:09:17.195Z,70.60
2022-12-16T13:12:28.064Z,70.70
2022-12-16T13:15:31.244Z,70.90
2022-12-16T13:18:25.526Z,71.00
2022-12-16T13:21:18.753Z,71.20
2022-12-16T13:24:08.869Z,71.50
2022-12-16T13:27:00.432Z,71.50
2022-12-16T13:30:01.299Z,71.70
2022-12-16T13:32:51.152Z,71.60
2022-12-16T13:35:39.462Z,71.70
2022-12-16T13:38:39.645Z,71.90
2022-12-16T13:41:48.611Z,73.00
2022-12-16T13:45:07.882Z,71.90
2022-12-16T13:48:06.530Z,72.00
2022-12-16T13:51:04.191Z,72.10
2022-12-16T13:53:55.203Z,72.30
2022-12-16T13:56:46.008Z,72.20
2022-12-16T13:59:44.106Z,72.30
2022-12-16T14:02:41.432Z,72.40
2022-12-16T14:05:38.796Z,72.40
2022-12-16T14:08:28.857Z,72.50
2022-12-16T14:11:20.402Z,72.60
2022-12-16T14:14:17.049Z,72.60
2022-12-16T14:17:16.875Z,72.70
2022-12-16T14:20:25.309Z,73.00
2022-12-16T14:23:54.806Z,72.90
2022-12-16T14:26:20.513Z,73.00
2022-12-16T14:29:09.070Z,72.90
2022-12-16T14:32:03.074Z,73.10
2022-12-16T14:34:54.666Z,73.10
2022-12-16T14:37:55.923Z,73.00
2022-12-16T14:40:52.083Z,73.30
2022-12-16T14:43:47.255Z,73.10
2022-12-16T14:46:49.703Z,73.00
2022-12-16T14:49:46.785Z,72.90
2022-12-16T14:52:53.340Z,72.90
2022-12-16T14:55:49.824Z,72.70
2022-12-16T15:01:58.852Z,72.70
2022-12-16T15:04:48.111Z,72.70
2022-12-16T15:07:44.843Z,72.70
2022-12-16T15:10:41.006Z,72.60
2022-12-16T15:13:34.085Z,72.80
2022-12-16T15:16:25.986Z,72.80
2022-12-16T15:19:16.634Z,72.80
2022-12-16T15:22:05.849Z,72.70
2022-12-16T15:24:56.550Z,72.70
2022-12-16T15:27:49.862Z,72.60
2022-12-16T15:31:00.724Z,72.80
2022-12-16T15:33:59.360Z,72.80
2022-12-16T15:36:51.750Z,72.90
2022-12-16T15:39:45.021Z,72.80
2022-12-16T15:42:48.102Z,73.00
2022-12-16T15:45:38.857Z,73.20
2022-12-16T15:48:41.383Z,73.10
2022-12-16T15:51:52.954Z,73.20
2022-12-16T15:54:43.614Z,73.00
2022-12-16T15:57:52.859Z,73.20
2022-12-16T16:00:49.942Z,73.30
2022-12-16T16:03:46.437Z,73.30
2022-12-16T16:06:42.516Z,73.40
2022-12-16T16:09:35.928Z,73.50
2022-12-16T16:12:26.918Z,73.60
2022-12-16T16:15:16.515Z,73.70
2022-12-16T16:18:06.098Z,73.70
2022-12-16T16:20:54.190Z,73.90
2022-12-16T16:23:44.635Z,74.20
2022-12-16T16:26:37.503Z,74.30
2022-12-16T16:29:49.220Z,74.40
2022-12-16T16:32:37.876Z,74.70
2022-12-16T16:35:26.369Z,75.40
2022-12-16T16:38:27.231Z,76.20
2022-12-16T16:41:16.704Z,76.80
2022-12-16T16:44:05.483Z,77.00
2022-12-16T16:47:01.171Z,77.40
2022-12-16T16:50:00.712Z,77.90
2022-12-16T16:52:49.058Z,78.20
2022-12-16T16:55:42.505Z,78.80
2022-12-16T16:58:41.270Z,79.10
2022-12-16T17:01:41.340Z,79.50
2022-12-16T17:04:30.614Z,79.60
2022-12-16T17:07:18.997Z,79.60
2022-12-16T17:10:07.246Z,80.00
2022-12-16T17:12:59.947Z,80.20
2022-12-16T17:15:51.945Z,80.30
2022-12-16T17:18:45.708Z,80.40
2022-12-16T17:21:30.572Z,80.60
2022-12-16T17:24:18.742Z,80.40
2022-12-16T17:27:06.945Z,80.70
2022-12-16T17:29:55.964Z,80.80
2022-12-16T17:32:47.191Z,81.20
2022-12-16T17:35:35.699Z,81.60
2022-12-16T17:38:23.719Z,82.00
2022-12-16T17:41:05.132Z,82.60
2022-12-16T17:43:53.125Z,82.80
2022-12-16T17:46:41.273Z,83.40
2022-12-16T17:49:30.542Z,83.70
2022-12-16T17:52:18.566Z,84.90
2022-12-16T17:55:06.910Z,84.30
2022-12-16T17:57:54.956Z,84.50
2022-12-16T18:00:43.148Z,84.70
2022-12-16T18:03:31.755Z,85.10
2022-12-16T18:06:20.611Z,85.40
2022-12-16T18:09:08.850Z,85.30
2022-12-16T18:11:56.902Z,85.80
2022-12-16T18:14:45.053Z,86.10
2022-12-16T18:17:33.014Z,86.30
2022-12-16T18:20:21.409Z,86.90
2022-12-16T18:23:13.743Z,86.70
2022-12-16T18:26:02.315Z,87.10
2022-12-16T18:28:50.406Z,86.60
2022-12-16T18:31:38.768Z,87.30
2022-12-16T18:34:28.696Z,87.50
2022-12-16T18:37:17.753Z,87.60
2022-12-16T18:40:06.930Z,87.70
2022-12-16T18:42:57.167Z,87.90
2022-12-16T18:45:45.668Z,88.20
2022-12-16T18:48:34.096Z,88.30
2022-12-16T18:51:22.429Z,88.60
2022-12-16T18:54:10.901Z,88.50
2022-12-16T18:57:00.873Z,88.90
2022-12-16T18:59:48.721Z,88.60
2022-12-16T19:02:37.188Z,88.80
2022-12-16T19:05:26.085Z,89.00
2022-12-16T19:08:14.607Z,89.10
2022-12-16T19:11:03.749Z,89.10
2022-12-16T19:13:51.936Z,89.20
2022-12-16T19:16:40.033Z,89.40
2022-12-16T19:19:31.388Z,89.50
2022-12-16T19:22:20.390Z,89.50
2022-12-16T19:25:11.738Z,89.90
2022-12-16T19:27:59.765Z,89.50
2022-12-16T19:30:48.123Z,89.80
2022-12-16T19:33:36.686Z,89.90
2022-12-16T19:36:28.065Z,89.90
2022-12-16T19:39:16.132Z,90.10
2022-12-16T19:42:05.899Z,90.00
2022-12-16T19:44:54.041Z,90.00
2022-12-16T19:47:43.122Z,90.00
2022-12-16T19:50:31.389Z,90.00
2022-12-16T19:53:21.790Z,89.90
2022-12-16T19:56:20.384Z,89.80
2022-12-16T19:59:08.474Z,89.80
2022-12-16T20:01:59.707Z,89.70
2022-12-16T20:04:47.879Z,89.70
2022-12-16T20:07:36.353Z,89.70
2022-12-16T20:10:26.361Z,89.70
2022-12-16T20:16:10.525Z,90.00
2022-12-16T20:18:58.601Z,90.00
2022-12-16T20:21:49.054Z,90.10
2022-12-16T20:24:36.909Z,90.10
2022-12-16T20:27:25.028Z,90.00
2022-12-16T20:30:13.167Z,89.70
2022-12-16T20:33:01.468Z,90.10
2022-12-16T20:35:49.694Z,90.00
2022-12-16T20:38:38.003Z,90.00
2022-12-16T20:41:26.163Z,90.00
2022-12-16T20:44:14.311Z,90.00
2022-12-16T20:47:02.655Z,90.00
2022-12-16T20:49:50.842Z,90.40
2022-12-16T20:52:39.567Z,90.00
2022-12-16T20:55:28.523Z,90.00
2022-12-16T20:58:16.720Z,90.00
2022-12-16T21:01:06.449Z,90.50
2022-12-16T21:03:55.043Z,90.00
2022-12-16T21:06:44.872Z,90.10
2022-12-16T21:09:33.098Z,90.00
2022-12-16T21:12:21.475Z,89.90
2022-12-16T21:15:09.758Z,89.90
2022-12-16T21:17:57.750Z,89.90
2022-12-16T21:20:45.964Z,89.90
2022-12-16T21:23:34.050Z,90.00
2022-12-16T21:26:22.653Z,89.90
2022-12-16T21:29:10.969Z,89.90
2022-12-16T21:32:00.923Z,89.90
2022-12-16T21:34:49.314Z,89.90
2022-12-16T21:37:30.274Z,90.00
2022-12-16T21:40:18.408Z,90.10
2022-12-16T21:43:06.460Z,90.10
2022-12-16T21:45:56.192Z,90.10
2022-12-16T21:48:44.958Z,90.20
2022-12-16T21:51:33.046Z,90.20
2022-12-16T21:54:21.353Z,90.20
2022-12-16T21:57:09.715Z,90.00
2022-12-16T21:59:57.856Z,90.20
2022-12-16T22:02:46.061Z,90.00
2022-12-16T22:05:34.380Z,90.10
2022-12-16T22:08:26.668Z,90.00
2022-12-16T22:11:15.313Z,89.80
2022-12-16T22:14:03.491Z,89.70
2022-12-16T22:16:51.869Z,89.60
2022-12-16T22:19:40.082Z,89.60
2022-12-16T22:22:28.822Z,89.50
2022-12-16T22:25:16.641Z,89.70
2022-12-16T22:28:05.318Z,89.70
2022-12-16T22:30:53.448Z,89.80
2022-12-16T22:33:43.189Z,89.70
2022-12-16T22:36:34.748Z,89.50
2022-12-16T22:39:22.905Z,89.60
2022-12-16T22:42:11.125Z,89.70
2022-12-16T22:45:00.506Z,90.00
2022-12-16T22:48:07.711Z,89.70
2022-12-16T22:50:56.326Z,89.80
2022-12-16T22:53:44.950Z,89.70
2022-12-16T22:56:33.377Z,89.60
2022-12-16T22:59:21.615Z,89.60
2022-12-16T23:02:10.007Z,89.60
2022-12-16T23:04:58.377Z,89.60
2022-12-16T23:07:46.522Z,89.50
2022-12-16T23:10:34.937Z,89.40
2022-12-16T23:13:23.317Z,89.30
2022-12-16T23:16:13.351Z,89.30
2022-12-16T23:19:01.703Z,89.20
2022-12-16T23:21:49.719Z,89.50
2022-12-16T23:24:37.847Z,89.80
2022-12-16T23:27:26.009Z,89.70
2022-12-16T23:30:14.484Z,89.90
2022-12-16T23:33:02.565Z,90.20
2022-12-16T23:35:50.519Z,90.20
2022-12-16T23:38:38.592Z,90.20
2022-12-16T23:41:26.580Z,90.10
2022-12-16T23:44:14.537Z,90.30
2022-12-16T23:47:02.821Z,90.30
2022-12-16T23:49:51.982Z,90.30
2022-12-16T23:52:40.431Z,90.40
2022-12-16T23:55:29.130Z,90.40
2022-12-16T23:58:22.332Z,90.40
